Aérodrome :
LOGIN :

S'inscrire | Disclaimer

   EN    FR    IT 

 










Légende :    VFR   VFR Marginal   IFR   IFR Intensif   IFR Très Intensif
Visi : 
Plafond : 
>= 8 km
>= 3000ft
5 à 8 km
1000 à 3000 ft
1500m à 5 km
500 à 1000 ft
800 à 1500m
200 à 500 ft
< 800m
< 200 ft
Symboles :   Orages  Brouillard  Fortes neiges  Fortes précipitations  Vent > 20 kt
SIGMETs :   Divers  Orages  Givrage  Turbulence  Onde Orograph.  Cendres Volcan.







- Altitude de l'aérodrome : 87 ft
- Code IATA : FSC
- Voir les cartes d'approche


LFKF - Figari

DERNIER METAR :
  • 201400Z AUTO 06012KT 020V100 CAVOK 29/17 Q1015 TEMPO SCT030 FEW040TCU

METARs EXPIRÉS :
  • 201330Z AUTO 06012KT 020V090 CAVOK 28/17 Q1015 TEMPO SCT030 FEW040TCU
  • 201300Z AUTO 06012KT 030V090 CAVOK 27/17 Q1016 TEMPO SCT030 FEW040TCU
  • 201230Z AUTO 07014KT 040V110 CAVOK 27/17 Q1016 TEMPO SCT030 FEW040TCU
  • 201200Z AUTO 07012KT 030V120 CAVOK 28/18 Q1016 TEMPO SCT030 FEW040TCU
  • 201130Z AUTO 06011KT 020V090 CAVOK 28/19 Q1016 TEMPO SCT030 FEW040TCU
  • 201100Z AUTO 06012KT 010V100 CAVOK 28/19 Q1016 TEMPO SCT030 FEW040TCU

TAF TAF LFKF
Valide du 20 à 09h jusqu'au 21 à 09h UTC


200800Z 2009/2109 06010KT 9999 FEW030
TEMPO 2011/2016 SCT030 FEW040TCU
BECMG 2019/2021 05004KT
Pas de NOTAMs connus pour ce terrain.



MET'MAP, la Météo Aéronautique d'un coup d'oeil ! - Copyright ORBIFLY Décembre 2007 - Disclaimer

ORBIFLY MET'MAP TEAM :

Programmation & Développement : Alexandra Zaïnal
Conception & Développement : Baudouin d'Aumeries
Co-Programmation & Développement : Marc-Olivier Méhu
Soutien technique & logistique : Manuel Goepfert

Contact : metmap@orbifly.com




SOURCES & CREDITS :

   NOAA